To NAV CANADA Home Page Login to a new session Search on AWWS site Feedback and Comments Disclaimer Vers la page française équivalente Tips FAQ What's new on the site To the Forecasts and Observations / NOTAM section To "File a Flight Plan" website Publications and other links Update of the User's profile FIC Telephone Numbers My Weather Data Folder Route Weather Data Regional Weather Data Local Weather Data To the Forecasts and Observations / NOTAM section
Request Generated 09/05/2015 at 03:41:53 UTC . Weather information available at that time is displayed.

METAR/TAF

MAYO/YT    

METAR CYMA 050300Z 00000KT 15SM -RA SCT050 OVC080 10/07 A2981 RMK
SC4AS4 SLP116=
SPECI CYMA 050253Z VRB02KT 20SM -RA SCT050 OVC080 10/07 A2981 RMK
SC4AS4 SLP116=
METAR CYMA 050200Z 26002KT 20SM SCT050 OVC080 11/05 A2981 RMK SC3AS5
SLP115 DENSITY ALT 1700FT=
METAR CYMA 050100Z VRB02KT 20SM SCT050 OVC080 12/05 A2981 RMK SC4AS4
SLP114 DENSITY ALT 1700FT=

TAF CYMA 042338Z 0500/0512 05006KT P6SM BKN050 OVC070 TEMPO 0500/0503
P6SM -SHRA OVC050
FM050300 10005KT P6SM -SHRA FEW020 OVC040 TEMPO 0503/0512 4SM -RA
BR BKN020 OVC040
RMK NXT FCST BY 050600Z=
Your time UTC time
Weather data provided by Environment Canada and NAV CANADA